KHII

Lake Havasu City Airport

Lake Havasu City, Arizona, USA
METAR KHII 130435Z AUTO 34013G18KT 10SM CLR 18/M06 A3016 RMK AO2
Observed Flight Rules
Dec-13 @ 04:35 UTC (21 minutes ago) Visual Flight Rules
Wind Visibility Clouds
340° at 13 knots
 Gusting to 18 knots
10 miles
  • Clear skies
Temperatures Readings
Current 18°C / 64°F
Dewpoint -6°C / 21°F
Humidity 19%
Altimeter 30.16" Hg
Pressure 1021 hPa
Elevation 238
METAR KHII 130435Z AUTO 34013G18KT 10SM CLR 18/M06 A3016 RMK AO2
Observed Flight Rules
Dec-13 @ 04:35 UTC
(21 minutes ago)
VFR
Wind Visibility
340° at 13 knots
 Gusting to 18 knots
10 miles
Clouds
  • Clear skies
Temperature Dewpoint
18°C / 64°F -6°C / 21°F
Humidity Altimeter Pressure
19% 30.16" Hg 1021 hPa